createdAt,value
2022-10-11T00:00:25.624Z,21.55
2022-10-11T00:01:29.999Z,21.56
2022-10-11T00:02:34.512Z,21.56
2022-10-11T00:03:38.737Z,21.58
2022-10-11T00:04:42.947Z,21.56
2022-10-11T00:05:47.200Z,21.58
2022-10-11T00:06:51.417Z,21.55
2022-10-11T00:07:55.679Z,21.54
2022-10-11T00:08:59.895Z,21.55
2022-10-11T00:10:04.135Z,21.53
2022-10-11T00:11:08.378Z,21.53
2022-10-11T00:12:12.593Z,21.5
2022-10-11T00:13:16.846Z,21.53
2022-10-11T00:14:21.092Z,21.51
2022-10-11T00:15:25.357Z,21.51
2022-10-11T00:16:29.571Z,21.52
2022-10-11T00:17:33.812Z,21.52
2022-10-11T00:18:38.103Z,21.53
2022-10-11T00:19:42.326Z,21.55
2022-10-11T00:20:46.584Z,21.53
2022-10-11T00:21:50.825Z,21.52
2022-10-11T00:22:55.045Z,21.51
2022-10-11T00:23:59.271Z,21.51
2022-10-11T00:25:03.503Z,21.52
2022-10-11T00:26:08.287Z,21.52
2022-10-11T00:27:13.315Z,21.52
2022-10-11T00:28:17.597Z,21.53
2022-10-11T00:29:22.098Z,21.52
2022-10-11T00:30:26.337Z,21.53
2022-10-11T00:31:34.770Z,21.52
2022-10-11T00:32:40.738Z,21.49
2022-10-11T00:33:44.985Z,21.51
2022-10-11T00:34:49.233Z,21.52
2022-10-11T00:35:53.473Z,21.53
2022-10-11T00:36:57.680Z,21.53
2022-10-11T00:38:01.920Z,21.52
2022-10-11T00:39:06.228Z,21.51
2022-10-11T00:40:10.490Z,21.49
2022-10-11T00:41:14.709Z,21.52
2022-10-11T00:42:18.989Z,21.51
2022-10-11T00:43:23.639Z,21.52
2022-10-11T00:44:27.851Z,21.51
2022-10-11T00:45:32.095Z,21.53
2022-10-11T00:46:36.318Z,21.52
2022-10-11T00:47:40.583Z,21.5
2022-10-11T00:48:47.108Z,21.48
2022-10-11T00:49:51.342Z,21.48
2022-10-11T00:50:55.579Z,21.5
2022-10-11T00:51:59.874Z,21.49
2022-10-11T00:53:04.125Z,21.5
2022-10-11T00:54:08.366Z,21.48
2022-10-11T00:55:12.594Z,21.49
2022-10-11T00:56:16.840Z,21.49
2022-10-11T00:57:21.072Z,21.47
2022-10-11T00:58:25.314Z,21.48
2022-10-11T00:59:29.543Z,21.48
2022-10-11T01:00:33.760Z,21.49
2022-10-11T01:01:38.060Z,21.47
2022-10-11T01:02:42.495Z,21.49
2022-10-11T01:03:46.765Z,21.49
2022-10-11T01:05:01.148Z,21.5
2022-10-11T01:06:32.859Z,21.47
2022-10-11T01:07:37.069Z,21.44
2022-10-11T01:08:41.294Z,21.48
2022-10-11T01:09:45.496Z,21.49
2022-10-11T01:10:52.256Z,21.49
2022-10-11T01:11:56.467Z,21.5
2022-10-11T01:13:00.686Z,21.49
2022-10-11T01:14:04.901Z,21.49
2022-10-11T01:15:09.102Z,21.49
2022-10-11T01:16:13.343Z,21.5
2022-10-11T01:17:17.555Z,21.46
2022-10-11T01:18:21.789Z,21.46
2022-10-11T01:19:26.054Z,21.46
2022-10-11T01:20:30.284Z,21.48
2022-10-11T01:21:34.483Z,21.51
2022-10-11T01:22:38.699Z,21.5
2022-10-11T01:23:42.927Z,21.49
2022-10-11T01:24:47.132Z,21.48
2022-10-11T01:25:51.358Z,21.47
2022-10-11T01:26:55.645Z,21.45
2022-10-11T01:27:59.890Z,21.46
2022-10-11T01:29:04.087Z,21.48
2022-10-11T01:30:08.285Z,21.46
2022-10-11T01:31:12.511Z,21.44
2022-10-11T01:32:16.724Z,21.45
2022-10-11T01:33:20.944Z,21.45
2022-10-11T01:34:25.200Z,21.48
2022-10-11T01:35:29.399Z,21.47
2022-10-11T01:36:33.648Z,21.43
2022-10-11T01:37:37.905Z,21.45
2022-10-11T01:38:42.346Z,21.47
2022-10-11T01:39:46.568Z,21.46
2022-10-11T01:40:50.878Z,21.47
2022-10-11T01:41:55.187Z,21.46
2022-10-11T01:42:59.571Z,21.43
2022-10-11T01:44:03.855Z,21.43
2022-10-11T01:45:08.138Z,21.42
2022-10-11T01:46:12.473Z,21.45
2022-10-11T01:47:16.726Z,21.44
2022-10-11T01:48:20.954Z,21.48
2022-10-11T01:49:25.196Z,21.47
2022-10-11T01:50:29.423Z,21.46
2022-10-11T01:51:33.702Z,21.45
2022-10-11T01:52:37.932Z,21.43
2022-10-11T01:53:42.149Z,21.43
2022-10-11T01:55:07.950Z,21.45
2022-10-11T01:56:13.824Z,21.46
2022-10-11T01:57:18.047Z,21.43
2022-10-11T01:58:22.271Z,21.44
2022-10-11T01:59:26.522Z,21.43
2022-10-11T02:00:30.839Z,21.45
2022-10-11T02:01:35.210Z,21.46
2022-10-11T02:02:39.734Z,21.44
2022-10-11T02:03:43.963Z,21.44
2022-10-11T02:04:48.179Z,21.41
2022-10-11T02:05:52.469Z,21.43
2022-10-11T02:06:56.686Z,21.42
2022-10-11T02:08:00.937Z,21.4
2022-10-11T02:09:08.026Z,21.42
2022-10-11T02:10:12.439Z,21.41
2022-10-11T02:11:16.647Z,21.42
2022-10-11T02:12:20.888Z,21.43
2022-10-11T02:13:25.127Z,21.44
2022-10-11T02:14:29.352Z,21.41
2022-10-11T02:15:33.587Z,21.43
2022-10-11T02:16:37.810Z,21.42
2022-10-11T02:17:42.101Z,21.42
2022-10-11T02:18:46.311Z,21.42
2022-10-11T02:19:50.526Z,21.41
2022-10-11T02:20:54.785Z,21.42
2022-10-11T02:21:59.085Z,21.41
2022-10-11T02:23:03.317Z,21.4
2022-10-11T02:24:07.519Z,21.42
2022-10-11T02:25:11.888Z,21.4
2022-10-11T02:26:16.142Z,21.41
2022-10-11T02:27:20.415Z,21.43
2022-10-11T02:28:24.758Z,21.43
2022-10-11T02:29:29.168Z,21.42
2022-10-11T02:30:33.401Z,21.41
2022-10-11T02:31:37.641Z,21.44
2022-10-11T02:32:41.987Z,21.44
2022-10-11T02:33:46.222Z,21.41
2022-10-11T02:34:50.431Z,21.4
2022-10-11T02:35:54.694Z,21.4
2022-10-11T02:36:59.003Z,21.4
2022-10-11T02:38:03.231Z,21.38
2022-10-11T02:39:07.465Z,21.4
2022-10-11T02:40:11.711Z,21.4
2022-10-11T02:41:15.941Z,21.42
2022-10-11T02:42:20.209Z,21.41
2022-10-11T02:43:24.417Z,21.4
2022-10-11T02:44:28.631Z,21.39
2022-10-11T02:45:33.894Z,21.42
2022-10-11T02:46:38.115Z,21.41
2022-10-11T02:47:42.369Z,21.42
2022-10-11T02:48:46.582Z,21.42
2022-10-11T02:49:50.838Z,21.41
2022-10-11T02:50:55.248Z,21.4
2022-10-11T02:51:59.509Z,21.4
2022-10-11T02:53:03.759Z,21.4
2022-10-11T02:54:08.100Z,21.4
2022-10-11T02:55:12.331Z,21.4
2022-10-11T02:56:16.591Z,21.4
2022-10-11T02:57:20.845Z,21.41
2022-10-11T02:58:25.078Z,21.4
2022-10-11T02:59:29.302Z,21.4
2022-10-11T03:00:33.537Z,21.39
2022-10-11T03:01:37.807Z,21.39
2022-10-11T03:02:42.332Z,21.39
2022-10-11T03:03:46.593Z,21.39
2022-10-11T03:04:50.815Z,21.39
2022-10-11T03:05:55.036Z,21.38
2022-10-11T03:06:59.321Z,21.37
2022-10-11T03:08:03.578Z,21.36
2022-10-11T03:09:07.812Z,21.36
2022-10-11T03:10:12.035Z,21.35
2022-10-11T03:11:16.248Z,21.36
2022-10-11T03:12:20.545Z,21.37
2022-10-11T03:13:24.937Z,21.39
2022-10-11T03:14:29.166Z,21.37
2022-10-11T03:15:33.402Z,21.38
2022-10-11T03:16:37.660Z,21.36
2022-10-11T03:17:41.899Z,21.36
2022-10-11T03:18:46.141Z,21.35
2022-10-11T03:19:50.391Z,21.36
2022-10-11T03:20:54.615Z,21.37
2022-10-11T03:21:58.819Z,21.37
2022-10-11T03:23:03.050Z,21.35
2022-10-11T03:24:07.295Z,21.34
2022-10-11T03:25:11.530Z,21.34
2022-10-11T03:26:15.748Z,21.35
2022-10-11T03:27:19.957Z,21.34
2022-10-11T03:28:24.260Z,21.34
2022-10-11T03:29:28.893Z,21.33
2022-10-11T03:30:33.172Z,21.35
2022-10-11T03:31:37.383Z,21.35
2022-10-11T03:32:41.645Z,21.33
2022-10-11T03:33:45.845Z,21.35
2022-10-11T03:34:50.059Z,21.37
2022-10-11T03:35:54.294Z,21.35
2022-10-11T03:36:58.528Z,21.34
2022-10-11T03:38:02.812Z,21.33
2022-10-11T03:39:07.033Z,21.36
2022-10-11T03:40:11.258Z,21.35
2022-10-11T03:41:15.511Z,21.35
2022-10-11T03:42:19.730Z,21.36
2022-10-11T03:43:23.963Z,21.36
2022-10-11T03:44:28.238Z,21.35
2022-10-11T03:45:32.483Z,21.35
2022-10-11T03:46:36.741Z,21.35
2022-10-11T03:47:40.993Z,21.35
2022-10-11T03:48:45.207Z,21.35
2022-10-11T03:49:49.460Z,21.35
2022-10-11T03:50:53.664Z,21.35
2022-10-11T03:51:57.904Z,21.36
2022-10-11T03:53:02.141Z,21.37
2022-10-11T03:54:06.418Z,21.37
2022-10-11T03:55:10.653Z,21.38
2022-10-11T03:56:15.392Z,21.37
2022-10-11T03:57:20.043Z,21.38
2022-10-11T03:58:24.277Z,21.39
2022-10-11T03:59:28.533Z,21.38
2022-10-11T04:00:32.800Z,21.39
2022-10-11T04:01:37.124Z,21.4
2022-10-11T04:02:41.519Z,21.4
2022-10-11T04:03:45.783Z,21.46
2022-10-11T04:04:50.019Z,21.52
2022-10-11T04:05:54.276Z,21.59
2022-10-11T04:06:58.612Z,21.71
2022-10-11T04:08:06.305Z,21.81
2022-10-11T04:09:15.368Z,21.96
2022-10-11T04:10:19.616Z,22.02
2022-10-11T04:11:23.836Z,22.02
2022-10-11T04:12:28.075Z,21.99
2022-10-11T04:13:32.342Z,21.96
2022-10-11T04:14:36.550Z,21.94
2022-10-11T04:15:40.767Z,21.93
2022-10-11T04:16:45.006Z,21.92
2022-10-11T04:17:49.221Z,21.93
2022-10-11T04:18:53.454Z,21.95
2022-10-11T04:19:57.703Z,21.95
2022-10-11T04:21:01.972Z,21.96
2022-10-11T04:22:06.190Z,21.97
2022-10-11T04:23:10.417Z,21.98
2022-10-11T04:24:14.680Z,22
2022-10-11T04:25:18.912Z,22.02
2022-10-11T04:26:23.147Z,22.03
2022-10-11T04:27:27.409Z,22.05
2022-10-11T04:28:31.702Z,22.06
2022-10-11T04:29:36.085Z,22.07
2022-10-11T04:30:40.327Z,22.07
2022-10-11T04:31:44.546Z,22.08
2022-10-11T04:32:48.770Z,22.06
2022-10-11T04:33:53.002Z,22.04
2022-10-11T04:34:57.210Z,22.04
2022-10-11T04:36:01.684Z,22.03
2022-10-11T04:37:07.249Z,22.01
2022-10-11T04:38:11.462Z,22.01
2022-10-11T04:39:15.747Z,21.98
2022-10-11T04:40:19.959Z,21.97
2022-10-11T04:41:24.166Z,21.95
2022-10-11T04:42:28.402Z,21.94
2022-10-11T04:43:32.637Z,21.91
2022-10-11T04:44:36.931Z,21.91
2022-10-11T04:45:41.145Z,21.89
2022-10-11T04:46:45.394Z,21.87
2022-10-11T04:47:49.653Z,21.86
2022-10-11T04:48:53.869Z,21.85
2022-10-11T04:49:58.072Z,21.84
2022-10-11T04:51:02.279Z,21.81
2022-10-11T04:52:06.521Z,21.8
2022-10-11T04:53:10.765Z,21.78
2022-10-11T04:54:15.004Z,21.76
2022-10-11T04:55:19.246Z,21.75
2022-10-11T04:56:23.466Z,21.75
2022-10-11T04:57:27.655Z,21.73
2022-10-11T04:58:31.930Z,21.72
2022-10-11T04:59:36.138Z,21.73
2022-10-11T05:00:40.364Z,21.71
2022-10-11T05:01:44.662Z,21.7
2022-10-11T05:02:49.366Z,21.68
2022-10-11T05:03:53.650Z,21.67
2022-10-11T05:04:57.872Z,21.69
2022-10-11T05:06:05.550Z,21.66
2022-10-11T05:07:11.148Z,21.63
2022-10-11T05:08:15.369Z,21.63
2022-10-11T05:09:19.641Z,21.62
2022-10-11T05:10:23.874Z,21.6
2022-10-11T05:11:28.108Z,21.59
2022-10-11T05:12:32.449Z,21.58
2022-10-11T05:13:36.676Z,21.57
2022-10-11T05:14:40.887Z,21.62
2022-10-11T05:15:45.147Z,21.6
2022-10-11T05:16:49.394Z,21.59
2022-10-11T05:17:53.619Z,21.58
2022-10-11T05:18:57.883Z,21.6
2022-10-11T05:20:02.132Z,21.6
2022-10-11T05:21:06.361Z,21.6
2022-10-11T05:22:10.565Z,21.59
2022-10-11T05:23:14.786Z,21.57
2022-10-11T05:24:19.029Z,21.58
2022-10-11T05:25:23.450Z,21.58
2022-10-11T05:26:27.703Z,21.58
2022-10-11T05:27:31.963Z,21.58
2022-10-11T05:28:36.251Z,21.55
2022-10-11T05:29:40.721Z,21.54
2022-10-11T05:30:44.969Z,21.56
2022-10-11T05:31:49.249Z,21.55
2022-10-11T05:32:53.456Z,21.54
2022-10-11T05:33:57.694Z,21.52
2022-10-11T05:35:01.989Z,21.51
2022-10-11T05:36:06.586Z,21.51
2022-10-11T05:37:12.267Z,21.53
2022-10-11T05:38:16.503Z,21.52
2022-10-11T05:39:20.745Z,21.52
2022-10-11T05:40:25.008Z,21.5
2022-10-11T05:41:29.231Z,21.5
2022-10-11T05:42:33.467Z,21.5
2022-10-11T05:43:37.678Z,21.5
2022-10-11T05:44:41.874Z,21.5
2022-10-11T05:45:46.128Z,21.48
2022-10-11T05:46:50.372Z,21.48
2022-10-11T05:47:54.581Z,21.47
2022-10-11T05:48:58.823Z,21.47
2022-10-11T05:50:05.769Z,21.45
2022-10-11T05:51:10.029Z,21.45
2022-10-11T05:52:14.285Z,21.45
2022-10-11T05:53:18.513Z,21.44
2022-10-11T05:54:22.738Z,21.42
2022-10-11T05:55:27.213Z,21.43
2022-10-11T05:56:32.037Z,21.42
2022-10-11T05:57:36.235Z,21.42
2022-10-11T05:58:40.461Z,21.41
2022-10-11T05:59:44.724Z,21.42
2022-10-11T06:00:48.930Z,21.43
2022-10-11T06:01:53.532Z,21.41
2022-10-11T06:02:57.980Z,21.42
2022-10-11T06:04:02.186Z,21.48
2022-10-11T06:05:06.418Z,21.5
2022-10-11T06:06:11.077Z,21.51
2022-10-11T06:07:15.368Z,21.56
2022-10-11T06:08:19.721Z,21.61
2022-10-11T06:09:23.949Z,21.65
2022-10-11T06:10:28.204Z,21.68
2022-10-11T06:11:32.535Z,21.71
2022-10-11T06:12:36.769Z,21.73
2022-10-11T06:13:40.977Z,21.75
2022-10-11T06:14:45.202Z,21.76
2022-10-11T06:15:49.470Z,21.75
2022-10-11T06:16:53.691Z,21.76
2022-10-11T06:17:57.957Z,21.76
2022-10-11T06:19:02.225Z,21.76
2022-10-11T06:20:06.478Z,21.74
2022-10-11T06:21:10.706Z,21.75
2022-10-11T06:22:14.950Z,21.75
2022-10-11T06:23:19.185Z,21.73
2022-10-11T06:24:23.506Z,21.72
2022-10-11T06:25:27.725Z,21.72
2022-10-11T06:26:32.259Z,21.71
2022-10-11T06:27:36.482Z,21.7
2022-10-11T06:28:40.765Z,21.69
2022-10-11T06:29:45.380Z,21.68
2022-10-11T06:30:49.893Z,21.68
2022-10-11T06:31:54.173Z,21.65
2022-10-11T06:33:02.442Z,21.63
2022-10-11T06:34:08.688Z,21.6
2022-10-11T06:35:12.886Z,21.6
2022-10-11T06:36:17.615Z,21.59
2022-10-11T06:37:22.466Z,21.58
2022-10-11T06:38:26.724Z,21.58
2022-10-11T06:39:30.979Z,21.57
2022-10-11T06:40:35.234Z,21.56
2022-10-11T06:41:39.477Z,21.55
2022-10-11T06:42:43.677Z,21.56
2022-10-11T06:43:48.059Z,21.56
2022-10-11T06:44:52.270Z,21.56
2022-10-11T06:45:56.470Z,21.54
2022-10-11T06:47:00.736Z,21.57
2022-10-11T06:48:04.961Z,21.55
2022-10-11T06:49:09.249Z,21.58
2022-10-11T06:50:13.493Z,21.55
2022-10-11T06:51:17.696Z,21.53
2022-10-11T06:52:21.970Z,21.53
2022-10-11T06:53:29.239Z,21.53
2022-10-11T06:54:33.835Z,21.51
2022-10-11T06:55:38.056Z,21.49
2022-10-11T06:56:42.285Z,21.47
2022-10-11T06:57:46.660Z,21.5
2022-10-11T06:58:50.937Z,21.53
2022-10-11T06:59:55.199Z,21.53
2022-10-11T07:00:59.494Z,21.54
2022-10-11T07:02:03.980Z,21.54
2022-10-11T07:03:08.242Z,21.54
2022-10-11T07:04:12.560Z,21.55
2022-10-11T07:05:16.798Z,21.53
2022-10-11T07:06:21.005Z,21.52
2022-10-11T07:07:25.232Z,21.51
2022-10-11T07:08:29.473Z,21.51
2022-10-11T07:09:33.704Z,21.51
2022-10-11T07:10:37.964Z,21.5
2022-10-11T07:11:42.200Z,21.49
2022-10-11T07:12:46.422Z,21.45
2022-10-11T07:13:50.674Z,21.45
2022-10-11T07:14:55.007Z,21.45
2022-10-11T07:15:59.207Z,21.45
2022-10-11T07:17:03.482Z,21.45
2022-10-11T07:18:07.716Z,21.44
2022-10-11T07:19:11.944Z,21.45
2022-10-11T07:20:16.167Z,21.44
2022-10-11T07:21:20.385Z,21.43
2022-10-11T07:22:24.627Z,21.43
2022-10-11T07:23:28.894Z,21.41
2022-10-11T07:24:33.129Z,21.4
2022-10-11T07:25:37.550Z,21.39
2022-10-11T07:26:41.836Z,21.37
2022-10-11T07:27:46.111Z,21.37
2022-10-11T07:28:50.425Z,21.37
2022-10-11T07:29:55.025Z,21.37
2022-10-11T07:30:59.303Z,21.34
2022-10-11T07:32:03.565Z,21.35
2022-10-11T07:33:08.069Z,21.35
2022-10-11T07:34:12.318Z,21.34
2022-10-11T07:35:16.568Z,21.35
2022-10-11T07:36:20.831Z,21.34
2022-10-11T07:37:25.645Z,21.31
2022-10-11T07:38:29.970Z,21.32
2022-10-11T07:39:34.247Z,21.31
2022-10-11T07:40:38.507Z,21.32
2022-10-11T07:41:45.788Z,21.34
2022-10-11T07:42:50.247Z,21.35
2022-10-11T07:43:54.487Z,21.36
2022-10-11T07:44:58.779Z,21.36
2022-10-11T07:46:03.409Z,21.38
2022-10-11T07:47:11.319Z,21.4
2022-10-11T07:48:15.802Z,21.42
2022-10-11T07:49:20.033Z,21.43
2022-10-11T07:50:24.618Z,21.46
2022-10-11T07:51:28.868Z,21.48
2022-10-11T07:52:33.095Z,21.49
2022-10-11T07:53:38.356Z,21.5
2022-10-11T07:54:42.574Z,21.52
2022-10-11T07:55:46.906Z,21.51
2022-10-11T07:56:51.154Z,21.52
2022-10-11T07:57:55.473Z,21.53
2022-10-11T07:58:59.787Z,21.53
2022-10-11T08:00:04.038Z,21.54
2022-10-11T08:01:08.320Z,21.54
2022-10-11T08:02:12.878Z,21.55
2022-10-11T08:03:17.094Z,21.54
2022-10-11T08:04:21.342Z,21.56
2022-10-11T08:05:25.592Z,21.55
2022-10-11T08:06:29.840Z,21.54
2022-10-11T08:07:35.517Z,21.54
2022-10-11T08:08:40.481Z,21.54
2022-10-11T08:09:44.893Z,21.55
2022-10-11T08:10:49.287Z,21.56
2022-10-11T08:11:53.690Z,21.57
2022-10-11T08:13:02.039Z,21.54
2022-10-11T08:14:08.512Z,21.54
2022-10-11T08:15:12.940Z,21.53
2022-10-11T08:16:17.362Z,21.54
2022-10-11T08:17:21.739Z,21.53
2022-10-11T08:18:26.124Z,21.51
2022-10-11T08:19:30.443Z,21.5
2022-10-11T08:20:34.769Z,21.51
2022-10-11T08:21:38.991Z,21.5
2022-10-11T08:22:43.277Z,21.49
2022-10-11T08:23:47.567Z,21.48
2022-10-11T08:24:51.784Z,21.49
2022-10-11T08:25:56.246Z,21.49
2022-10-11T08:27:00.476Z,21.5
2022-10-11T08:28:04.932Z,21.48
2022-10-11T08:29:09.184Z,21.5
2022-10-11T08:30:13.432Z,21.52
2022-10-11T08:31:17.697Z,21.53
2022-10-11T08:32:21.974Z,21.53
2022-10-11T08:33:26.221Z,21.49
2022-10-11T08:34:30.470Z,21.49
2022-10-11T08:35:34.683Z,21.48
2022-10-11T08:36:38.981Z,21.46
2022-10-11T08:37:43.216Z,21.45
2022-10-11T08:38:47.431Z,21.46
2022-10-11T08:39:51.676Z,21.47
2022-10-11T08:40:56.164Z,21.47
2022-10-11T08:42:00.426Z,21.48
2022-10-11T08:43:04.654Z,21.49
2022-10-11T08:44:08.892Z,21.46
2022-10-11T08:45:13.126Z,21.46
2022-10-11T08:46:17.402Z,21.45
2022-10-11T08:47:21.683Z,21.47
2022-10-11T08:48:25.904Z,21.44
2022-10-11T08:49:30.121Z,21.45
2022-10-11T08:50:34.356Z,21.46
2022-10-11T08:51:38.583Z,21.45
2022-10-11T08:52:42.842Z,21.47
2022-10-11T08:53:47.088Z,21.47
2022-10-11T08:54:52.379Z,21.47
2022-10-11T08:55:56.637Z,21.46
2022-10-11T08:57:00.911Z,21.45
2022-10-11T08:58:05.160Z,21.44
2022-10-11T08:59:09.398Z,21.44
2022-10-11T09:00:13.716Z,21.43
2022-10-11T09:01:18.024Z,21.45
2022-10-11T09:02:22.438Z,21.45
2022-10-11T09:03:26.683Z,21.45
2022-10-11T09:04:30.901Z,21.44
2022-10-11T09:05:35.132Z,21.45
2022-10-11T09:06:39.367Z,21.44
2022-10-11T09:07:43.595Z,21.44
2022-10-11T09:08:47.915Z,21.45
2022-10-11T09:09:52.216Z,21.44
2022-10-11T09:10:56.414Z,21.43
2022-10-11T09:12:00.642Z,21.43
2022-10-11T09:13:04.882Z,21.43
2022-10-11T09:14:09.108Z,21.42
2022-10-11T09:15:13.341Z,21.42
2022-10-11T09:16:17.557Z,21.4
2022-10-11T09:17:21.815Z,21.41
2022-10-11T09:18:26.043Z,21.4
2022-10-11T09:19:30.358Z,21.41
2022-10-11T09:20:34.739Z,21.41
2022-10-11T09:21:38.994Z,21.39
2022-10-11T09:22:43.237Z,21.38
2022-10-11T09:23:47.443Z,21.39
2022-10-11T09:24:51.703Z,21.38
2022-10-11T09:25:55.932Z,21.38
2022-10-11T09:27:00.186Z,21.38
2022-10-11T09:28:04.427Z,21.38
2022-10-11T09:29:08.773Z,21.38
2022-10-11T09:30:13.448Z,21.38
2022-10-11T09:31:17.828Z,21.36
2022-10-11T09:32:22.043Z,21.34
2022-10-11T09:33:26.250Z,21.3
2022-10-11T09:34:30.546Z,21.24
2022-10-11T09:35:34.839Z,21.27
2022-10-11T09:36:39.310Z,21.21
2022-10-11T09:37:43.568Z,21.16
2022-10-11T09:38:47.806Z,21.13
2022-10-11T09:39:52.031Z,21.11
2022-10-11T09:40:56.305Z,21.09
2022-10-11T09:42:00.565Z,21.07
2022-10-11T09:43:04.796Z,21.07
2022-10-11T09:44:09.026Z,21.05
2022-10-11T09:45:13.250Z,21.04
2022-10-11T09:46:17.523Z,21.04
2022-10-11T09:47:21.747Z,21.03
2022-10-11T09:48:25.986Z,21.02
2022-10-11T09:49:30.233Z,21.01
2022-10-11T09:50:34.601Z,20.98
2022-10-11T09:51:38.863Z,20.99
2022-10-11T09:52:43.109Z,20.98
2022-10-11T09:53:47.364Z,20.96
2022-10-11T09:54:51.604Z,20.91
2022-10-11T09:55:55.837Z,20.94
2022-10-11T09:57:00.103Z,21.01
2022-10-11T09:58:04.356Z,21.03
2022-10-11T09:59:08.582Z,21.06
2022-10-11T10:00:12.809Z,21.02
2022-10-11T10:01:17.078Z,20.99
2022-10-11T10:02:21.605Z,20.98
2022-10-11T10:03:25.862Z,20.98
2022-10-11T10:04:30.254Z,20.97
2022-10-11T10:05:34.778Z,20.96
2022-10-11T10:06:39.065Z,20.93
2022-10-11T10:07:46.419Z,20.93
2022-10-11T10:08:50.669Z,20.94
2022-10-11T10:09:54.937Z,20.9
2022-10-11T10:10:59.710Z,20.91
2022-10-11T10:12:04.081Z,20.9
2022-10-11T10:13:08.295Z,20.89
2022-10-11T10:14:12.664Z,20.89
2022-10-11T10:15:17.050Z,20.87
2022-10-11T10:16:21.439Z,20.84
2022-10-11T10:17:25.752Z,20.82
2022-10-11T10:18:29.966Z,20.8
2022-10-11T10:19:34.204Z,20.82
2022-10-11T10:20:42.259Z,20.82
2022-10-11T10:21:46.470Z,20.81
2022-10-11T10:22:50.793Z,20.82
2022-10-11T10:23:54.992Z,20.82
2022-10-11T10:24:59.297Z,20.83
2022-10-11T10:26:03.871Z,20.8
2022-10-11T10:27:09.407Z,20.79
2022-10-11T10:28:13.730Z,20.79
2022-10-11T10:29:18.145Z,20.78
2022-10-11T10:30:22.383Z,20.78
2022-10-11T10:31:26.628Z,20.77
2022-10-11T10:32:30.931Z,20.8
2022-10-11T10:33:35.163Z,20.78
2022-10-11T10:34:39.397Z,20.78
2022-10-11T10:35:43.714Z,20.79
2022-10-11T10:36:47.961Z,20.78
2022-10-11T10:37:52.230Z,20.8
2022-10-11T10:38:56.509Z,20.78
2022-10-11T10:40:00.841Z,20.8
2022-10-11T10:41:05.103Z,20.77
2022-10-11T10:42:09.353Z,20.77
2022-10-11T10:43:13.651Z,20.76
2022-10-11T10:44:17.976Z,20.76
2022-10-11T10:45:22.226Z,20.72
2022-10-11T10:46:26.451Z,20.74
2022-10-11T10:47:30.673Z,20.74
2022-10-11T10:49:01.942Z,20.71
2022-10-11T10:50:56.475Z,20.71
2022-10-11T10:52:00.738Z,20.71
2022-10-11T10:53:04.966Z,20.68
2022-10-11T10:54:09.233Z,20.66
2022-10-11T10:55:13.451Z,20.66
2022-10-11T10:56:17.715Z,20.67
2022-10-11T10:57:21.962Z,20.65
2022-10-11T10:58:26.333Z,20.65
2022-10-11T10:59:30.636Z,20.63
2022-10-11T11:00:34.896Z,20.64
2022-10-11T11:01:39.167Z,20.65
2022-10-11T11:02:43.639Z,20.66
2022-10-11T11:03:48.534Z,20.66
2022-10-11T11:04:52.828Z,20.68
2022-10-11T11:05:57.258Z,20.71
2022-10-11T11:07:01.479Z,20.68
2022-10-11T11:08:05.732Z,20.7
2022-10-11T11:09:10.006Z,20.69
2022-10-11T11:10:14.265Z,20.69
2022-10-11T11:11:18.553Z,20.69
2022-10-11T11:12:22.779Z,20.66
2022-10-11T11:13:27.051Z,20.66
2022-10-11T11:14:31.343Z,20.66
2022-10-11T11:15:37.857Z,20.66
2022-10-11T11:16:42.360Z,20.64
2022-10-11T11:17:46.586Z,20.64
2022-10-11T11:18:50.873Z,20.62
2022-10-11T11:19:55.348Z,20.64
2022-10-11T11:20:59.566Z,20.64
2022-10-11T11:22:03.801Z,20.67
2022-10-11T11:23:08.043Z,20.67
2022-10-11T11:24:12.241Z,20.67
2022-10-11T11:25:16.531Z,20.68
2022-10-11T11:26:20.896Z,20.68
2022-10-11T11:27:25.110Z,20.67
2022-10-11T11:28:29.409Z,20.67
2022-10-11T11:29:33.823Z,20.69
2022-10-11T11:30:38.109Z,20.71
2022-10-11T11:31:42.357Z,20.68
2022-10-11T11:32:46.582Z,20.7
2022-10-11T11:33:50.776Z,20.65
2022-10-11T11:34:55.003Z,20.67
2022-10-11T11:35:59.213Z,20.68
2022-10-11T11:37:03.452Z,20.71
2022-10-11T11:38:07.983Z,20.73
2022-10-11T11:39:12.241Z,20.73
2022-10-11T11:40:16.469Z,20.76
2022-10-11T11:41:20.724Z,20.76
2022-10-11T11:42:24.991Z,20.77
2022-10-11T11:43:29.227Z,20.82
2022-10-11T11:44:33.512Z,20.8
2022-10-11T11:45:37.764Z,20.81
2022-10-11T11:46:43.064Z,20.8
2022-10-11T11:47:47.312Z,20.8
2022-10-11T11:48:51.559Z,20.82
2022-10-11T11:49:55.861Z,20.82
2022-10-11T11:51:00.115Z,20.85
2022-10-11T11:52:04.827Z,20.85
2022-10-11T11:53:09.090Z,20.85
2022-10-11T11:54:13.325Z,20.83
2022-10-11T11:55:17.568Z,20.83
2022-10-11T11:56:21.796Z,20.84
2022-10-11T11:57:26.038Z,20.85
2022-10-11T11:58:30.264Z,20.85
2022-10-11T11:59:34.503Z,20.85
2022-10-11T12:00:38.769Z,20.85
2022-10-11T12:01:43.081Z,20.85
2022-10-11T12:02:47.576Z,20.87
2022-10-11T12:03:51.782Z,20.84
2022-10-11T12:04:56.060Z,20.86
2022-10-11T12:06:00.296Z,20.85
2022-10-11T12:07:15.722Z,20.85
2022-10-11T12:08:22.178Z,20.85
2022-10-11T12:09:26.397Z,20.85
2022-10-11T12:10:30.633Z,20.87
2022-10-11T12:11:35.567Z,20.88
2022-10-11T12:12:40.892Z,20.88
2022-10-11T12:13:45.132Z,20.87
2022-10-11T12:14:49.396Z,20.88
2022-10-11T12:15:53.685Z,20.89
2022-10-11T12:16:57.977Z,20.9
2022-10-11T12:18:02.173Z,20.91
2022-10-11T12:19:06.404Z,20.91
2022-10-11T12:20:10.736Z,20.92
2022-10-11T12:21:15.036Z,20.92
2022-10-11T12:22:19.256Z,20.94
2022-10-11T12:23:23.510Z,20.95
2022-10-11T12:24:27.764Z,20.99
2022-10-11T12:25:31.975Z,21.02
2022-10-11T12:26:36.184Z,21.04
2022-10-11T12:27:40.973Z,21.05
2022-10-11T12:28:45.300Z,21.06
2022-10-11T12:29:49.812Z,21.08
2022-10-11T12:30:55.047Z,21.08
2022-10-11T12:31:59.297Z,21.09
2022-10-11T12:33:03.533Z,21.09
2022-10-11T12:34:07.890Z,21.1
2022-10-11T12:35:12.121Z,21.08
2022-10-11T12:36:16.369Z,21.07
2022-10-11T12:37:20.608Z,21.08
2022-10-11T12:38:24.847Z,21.09
2022-10-11T12:39:29.068Z,21.1
2022-10-11T12:40:33.356Z,21.08
2022-10-11T12:41:37.591Z,21.1
2022-10-11T12:42:41.829Z,21.11
2022-10-11T12:43:46.062Z,21.11
2022-10-11T12:44:51.318Z,21.13
2022-10-11T12:45:55.644Z,21.15
2022-10-11T12:46:59.962Z,21.15
2022-10-11T12:48:04.184Z,21.16
2022-10-11T12:49:08.407Z,21.18
2022-10-11T12:50:12.601Z,21.17
2022-10-11T12:51:16.879Z,21.18
2022-10-11T12:52:21.113Z,21.19
2022-10-11T12:53:25.376Z,21.2
2022-10-11T12:54:33.254Z,21.21
2022-10-11T12:55:40.689Z,21.21
2022-10-11T12:56:45.082Z,21.21
2022-10-11T12:57:49.340Z,21.21
2022-10-11T12:58:54.578Z,21.2
2022-10-11T12:59:58.887Z,21.19
2022-10-11T13:01:03.130Z,21.2
2022-10-11T13:02:07.544Z,21.21
2022-10-11T13:03:11.829Z,21.21
2022-10-11T13:04:16.066Z,21.2
2022-10-11T13:05:20.310Z,21.18
2022-10-11T13:06:24.613Z,21.15
2022-10-11T13:07:28.852Z,21.16
2022-10-11T13:08:33.106Z,21.17
2022-10-11T13:09:37.333Z,21.16
2022-10-11T13:10:41.564Z,21.17
2022-10-11T13:11:45.780Z,21.16
2022-10-11T13:12:50.027Z,21.18
2022-10-11T13:13:55.127Z,21.15
2022-10-11T13:14:59.393Z,21.15
2022-10-11T13:16:03.842Z,21.16
2022-10-11T13:17:09.160Z,21.15
2022-10-11T13:18:13.409Z,21.17
2022-10-11T13:19:17.667Z,21.18
2022-10-11T13:20:21.896Z,21.19
2022-10-11T13:21:26.116Z,21.21
2022-10-11T13:22:30.364Z,21.23
2022-10-11T13:23:34.598Z,21.25
2022-10-11T13:24:38.877Z,21.24
2022-10-11T13:25:43.127Z,21.26
2022-10-11T13:26:47.392Z,21.24
2022-10-11T13:27:51.605Z,21.25
2022-10-11T13:28:55.852Z,21.26
2022-10-11T13:30:00.299Z,21.24
2022-10-11T13:31:04.964Z,21.27
2022-10-11T13:32:10.685Z,21.27
2022-10-11T13:33:14.911Z,21.29
2022-10-11T13:34:23.148Z,21.3
2022-10-11T13:35:27.584Z,21.3
2022-10-11T13:36:31.837Z,21.32
2022-10-11T13:37:36.057Z,21.32
2022-10-11T13:38:40.302Z,21.33
2022-10-11T13:39:44.603Z,21.32
2022-10-11T13:40:51.109Z,21.32
2022-10-11T13:41:55.472Z,21.33
2022-10-11T13:42:59.736Z,21.35
2022-10-11T13:44:05.046Z,21.34
2022-10-11T13:45:09.304Z,21.33
2022-10-11T13:46:13.517Z,21.3
2022-10-11T13:47:17.743Z,21.29
2022-10-11T13:48:21.973Z,21.29
2022-10-11T13:49:30.404Z,21.31
2022-10-11T13:50:34.704Z,21.32
2022-10-11T13:51:39.215Z,21.35
2022-10-11T13:52:43.430Z,21.36
2022-10-11T13:53:48.718Z,21.36
2022-10-11T13:54:52.981Z,21.36